• Join FlightAware (Why Join?)
  • Login
  • US Flag GB Flag 
13:59 EDT


 

Airport Tracker/Info


-or-


 

Live Flight TrackerFlight Track Log ✈ EJA982 ✈ 22-Apr-2013 ✈ KRNO - KHPN

Flight Track Log - Related Links

Times and Time Zones

All times are in EDT time to prevent confusion due to time zone crossing. See the EJA982 flight status page for this flight to view local times or setup timezone preferences in your user account.

Time Position Orientation Groundspeed Altitude Reporting Facility
EDT Latitude Longitude Course Direction KTS MPH feet Rate Location/Type
13:08 39.3833 -119.7500 169° South 262 302 9,000  Level Northern Cal TRACON
13:10 39.4553 -119.5711 62° Northeast 324 373 12,200 1,740 Climbing Salt Lake Center
13:11 39.5361 -119.4500 49° Northeast 359 413 14,600 1,980 Climbing Oakland Center
13:12 39.6078 -119.3472 48° Northeast 375 432 16,400 1,680 Climbing Oakland Center
13:13 39.6819 -119.2389 48° Northeast 392 451 18,100 1,560 Climbing Oakland Center
13:14 39.7564 -119.1294 48° Northeast 399 459 19,700 1,440 Climbing Oakland Center
13:15 39.8342 -119.0136 49° Northeast 414 476 21,100 1,320 Climbing Oakland Center
13:16 39.9128 -118.8953 49° Northeast 426 490 22,500 1,380 Climbing Oakland Center
13:17 39.9928 -118.7764 49° Northeast 433 498 24,000 1,380 Climbing Oakland Center
13:18 40.0750 -118.6519 49° Northeast 445 512 25,400 1,260 Climbing Oakland Center
13:19 40.1439 -118.5117 57° Northeast 456 525 26,700 1,260 Climbing Oakland Center
13:20 40.1994 -118.3078 70° East 490 564 28,100 1,260 Climbing Oakland Center
13:21 40.2464 -118.1342 70° East 502 578 29,300 1,080 Climbing Oakland Center
13:22 40.2931 -117.9597 71° East 511 588 30,400 1,140 Climbing Oakland Center
13:23 40.3394 -117.7875 70° East 520 598 31,600 1,140 Climbing Salt Lake Center
13:24 40.3869 -117.6097 71° East 532 612 32,700 1,200 Climbing Salt Lake Center
13:25 40.4428 -117.4014 71° East 541 623 34,100 1,380 Climbing Salt Lake Center
13:26 40.4911 -117.2219 70° East 542 624 35,600 1,560 Climbing Salt Lake Center
13:27 40.5378 -117.0406 71° East 542 624 37,400 1,740 Climbing Salt Lake Center
13:28 40.5928 -116.8331 71° East 528 608 39,200 1,260 Climbing Salt Lake Center
13:29 40.6406 -116.6569 70° East 528 608 40,000 720 Climbing Salt Lake Center
13:30 40.6886 -116.4797 70° East 532 612 40,700 300 Climbing Salt Lake Center
13:32 40.7373 -116.2639 71° East  Level FlightAware Approximate
13:32 40.7917 -116.0897 71° East 547 629 41,000  Level Salt Lake Center
13:33 40.8403 -115.9075 71° East 549 632 41,000  Level Salt Lake Center
13:34 40.8953 -115.6931 71° East 551 634 41,000  Level Salt Lake Center
13:35 40.9422 -115.5103 71° East 550 633 41,000  Level Salt Lake Center
13:36 40.9967 -115.3006 71° East 541 623 41,000  Level Salt Lake Center
13:37 41.0422 -115.1214 71° East 538 619 41,000  Level Salt Lake Center
13:39 41.0897 -114.9417 71° East 539 620 41,000  Level Salt Lake Center
13:40 41.1361 -114.7486 72° East 540 621 41,000  Level Salt Lake Center
13:41 41.1850 -114.5597 71° East 541 623 41,000  Level Salt Lake Center
13:42 41.2400 -114.3311 72° East 543 625 41,000  Level Salt Lake Center
13:43 41.2869 -114.1394 72° East 546 628 41,000  Level Salt Lake Center
13:44 41.3336 -113.9486 72° East 544 626 41,000  Level Salt Lake Center
13:45 41.3697 -113.7547 76° East 542 624 41,000 -60 Level Salt Lake Center
13:46 41.3814 -113.5475 86° East 559 643 40,900  Descending Salt Lake Center
13:47 41.3950 -113.3392 85° East 564 649 41,000  Climbing Salt Lake Center
13:48 41.4078 -113.1344 85° East 556 640 41,000  Level Salt Lake Center
13:49 41.4206 -112.9264 85° East 563 648 41,000  Level Salt Lake Center
13:51 41.4472 -112.4694 85° East 559 643 41,000  Level Salt Lake Center
13:52 41.4583 -112.2617 86° East 560 644 41,000  Level Salt Lake Center
13:53 41.4694 -112.0517 86° East 563 648 41,000  Level Salt Lake Center
13:54 41.4811 -111.8417 86° East 565 650 41,000  Level Salt Lake Center
13:55 41.4911 -111.6308 86° East 565 650 41,000  Level Salt Lake Center
13:56 41.5019 -111.4197 86° East 567 652 41,000  Level Salt Lake Center
13:57 41.5103 -111.2092 87° East 567 652 41,000  Level Salt Lake Center
13:58 41.5194 -110.9986 87° East 567 652 41,000  Level Salt Lake Center
13:59 41.5300 -110.7703 86° East 570 656 41,000  Level Salt Lake Center
14:00 41.5397 -110.5350 87° East 569 655 41,000  Level Salt Lake Center
14:01 41.5478 -110.3333 87° East 569 655 41,000  Level Salt Lake Center
14:02 41.5553 -110.0983 87° East 570 656 41,000  Level Salt Lake Center
14:03 41.5628 -109.8953 87° East 572 658 41,000  Level Salt Lake Center
14:04 41.5708 -109.6586 87° East 571 657 41,000  Level Salt Lake Center
14:05 41.5775 -109.4550 87° East 572 658 41,000  Level Salt Lake Center
14:06 41.5833 -109.2497 88° East 572 658 41,000  Level Salt Lake Center
14:07 41.5903 -109.0092 88° East 569 655 41,000  Level Salt Lake Center
14:08 41.6067 -108.8047 84° East 569 655 41,000  Level Salt Lake Center
14:09 41.6228 -108.6017 84° East 571 657 41,000  Level Salt Lake Center
14:10 41.6394 -108.3664 85° East 571 657 41,000  Level Salt Lake Center
14:11 41.6533 -108.1642 85° East 571 657 41,000  Level Salt Lake Center
14:12 41.6664 -107.9925 84° East 574 661 41,000  Level Denver Center
14:13 41.6794 -107.7928 85° East 567 652 41,000  Level Denver Center
14:14 41.6956 -107.5564 85° East 570 656 41,000  Level Denver Center
14:15 41.7092 -107.3533 85° East 573 659 41,000  Level Denver Center
14:16 41.7250 -107.1167 85° East 573 659 41,000  Level Denver Center
14:17 41.7367 -106.9128 86° East 573 659 41,000  Level Denver Center
14:18 41.7500 -106.6756 86° East 571 657 41,000  Level Denver Center
14:19 41.7642 -106.4617 85° East 572 658 41,000  Level Denver Center
14:20 41.7750 -106.2569 86° East 576 663 41,000  Level Denver Center
14:21 41.7875 -106.0203 86° East 574 661 41,000  Level Denver Center
14:22 41.7992 -105.8172 86° East 574 661 41,000  Level Denver Center
14:23 41.8103 -105.5789 86° East 576 663 41,000  Level Denver Center
14:25 41.8192 -105.3742 87° East 576 663 41,000  Level Denver Center
14:26 41.8294 -105.1703 86° East 575 662 41,000  Level Denver Center
14:27 41.8394 -104.9317 87° East 576 663 41,000  Level Denver Center
14:28 41.8483 -104.7272 87° East 576 663 41,000  Level Denver Center
14:29 41.8581 -104.4900 87° East 577 664 41,000  Level Denver Center
14:30 41.8658 -104.2864 87° East 574 661 41,000  Level Denver Center
14:31 41.8742 -104.0478 87° East 576 663 41,000  Level Denver Center
14:32 41.8814 -103.8444 87° East 575 662 41,000  Level Denver Center
14:33 41.8897 -103.6044 87° East 578 665 41,000  Level Denver Center
14:34 41.9039 -103.4019 85° East 573 659 41,000  Level Denver Center
14:35 41.9333 -103.2008 79° East 575 662 41,000  Level Denver Center
14:36 41.9650 -102.9664 80° East 573 659 41,000  Level Denver Center
14:37 41.9931 -102.7664 79° East 572 658 41,000  Level Denver Center
14:38 42.0244 -102.5331 80° East 569 655 41,000  Level Denver Center
14:39 42.0494 -102.3336 80° East 567 652 41,000  Level Denver Center
14:40 42.0814 -102.1008 79° East 568 654 41,000  Level Denver Center
14:41 42.1069 -101.9022 80° East 564 649 41,000  Level Denver Center
14:42 42.1361 -101.6664 80° East 569 655 41,000  Level Denver Center
14:43 42.1622 -101.4644 80° East 569 655 41,000  Level Denver Center
14:44 42.1867 -101.2625 81° East 569 655 41,000  Level Denver Center
14:45 42.2147 -101.0253 81° East 572 658 41,000  Level Denver Center
14:46 42.2394 -100.8217 81° East 572 658 41,000  Level Denver Center
14:47 42.2664 -100.5850 81° East 571 657 41,000  Level Denver Center
14:48 42.2894 -100.3814 81° East 572 658 41,000  Level Denver Center
14:49 42.3131 -100.1775 81° East 574 661 41,000  Level Denver Center
14:50 42.3397 -99.9392 81° East 574 661 41,000  Level Denver Center
14:51 42.3619 -99.7347 82° East 573 659 41,000  Level Denver Center
14:52 42.3844 -99.5194 82° East 572 658 41,000  Level Denver Center
14:53 42.4072 -99.3056 82° East 573 659 41,000  Level Denver Center
14:54 42.4289 -99.0906 82° East 575 662 41,000  Level Denver Center
14:55 42.4517 -98.8789 82° East 568 654 41,000  Level Denver Center
14:56 42.4739 -98.6211 83° East 572 658 41,000  Level Minneapolis Center
14:58 42.4847 -98.4053 86° East 572 658 41,000  Level Minneapolis Center
14:59 42.4953 -98.1886 86° East 574 661 41,000  Level Minneapolis Center
15:00 42.5033 -97.9725 87° East 574 661 41,000  Level Minneapolis Center
15:01 42.5156 -97.7292 86° East 571 657 41,000  Level Minneapolis Center
15:02 42.5242 -97.5144 87° East 570 656 41,000  Level Minneapolis Center
15:03 42.5325 -97.2992 87° East 571 657 41,000  Level Minneapolis Center
15:04 42.5417 -97.0844 87° East 570 656 41,000  Level Minneapolis Center
15:05 42.5486 -96.8689 87° East 570 656 41,000  Level Minneapolis Center
15:06 42.5567 -96.6564 87° East 566 651 41,000  Level Minneapolis Center
15:07 42.5644 -96.3997 88° East 567 652 41,000  Level Minneapolis Center
15:08 42.5711 -96.1858 88° East 567 652 41,000  Level Minneapolis Center
15:09 42.5769 -95.9719 88° East 567 652 41,000  Level Minneapolis Center
15:10 42.5822 -95.7581 88° East 566 651 41,000  Level Minneapolis Center
15:11 42.5886 -95.5436 88° East 566 651 41,000  Level Minneapolis Center
15:12 42.5933 -95.3281 88° East 570 656 41,000  Level Minneapolis Center
15:13 42.5972 -95.1119 89° East 571 657 41,000  Level Minneapolis Center
15:14 42.6019 -94.8969 88° East 570 656 41,000  Level Minneapolis Center
15:15 42.6050 -94.6822 89° East 568 654 41,000  Level Minneapolis Center
15:16 42.6075 -94.4358 89° East 570 656 41,000  Level Minneapolis Center
15:17 42.6083 -94.2264 90° East 562 647 41,000  Level Minneapolis Center
15:18 42.5972 -94.0150 94° East 566 651 41,000  Level Minneapolis Center
15:19 42.5875 -93.8056 94° East 565 650 41,000  Level Minneapolis Center
15:20 42.5775 -93.5947 94° East 566 651 41,000  Level Minneapolis Center
15:21 42.5678 -93.3850 94° East 563 648 41,000  Level Minneapolis Center
15:22 42.5547 -93.1336 94° East 562 647 41,000  Level Minneapolis Center
15:23 42.5433 -92.9275 94° East 558 642 41,000  Level Minneapolis Center
15:24 42.5325 -92.7208 94° East 557 641 41,000  Level Minneapolis Center
15:25 42.5206 -92.5150 94° East 555 639 41,000  Level Minneapolis Center
15:26 42.5089 -92.3094 94° East 554 638 41,000  Level Minneapolis Center
15:27 42.4967 -92.1056 95° East 553 636 41,000  Level Minneapolis Center
15:28 42.4908 -92.0219 95° East 552 635 41,000  Level Chicago Center
15:29 42.4758 -91.7775 95° East 553 636 41,000  Level Chicago Center
15:30 42.4631 -91.5750 95° East 553 636 41,000  Level Chicago Center
15:31 42.4494 -91.3708 95° East 557 641 41,000  Level Chicago Center
15:32 42.4336 -91.1678 96° East 553 636 41,000  Level Chicago Center
15:33 42.4194 -90.9617 95° East 556 640 41,000  Level Chicago Center
15:34 42.4017 -90.7133 95° East 559 643 41,000  Level Chicago Center
15:35 42.3903 -90.5069 94° East 556 640 41,000  Level Chicago Center
15:36 42.3789 -90.3000 94° East 559 643 41,000  Level Chicago Center
15:37 42.3675 -90.0931 94° East 558 642 41,000  Level Chicago Center
15:38 42.3536 -89.8517 94° East 556 640 41,000  Level Chicago Center
15:39 42.3403 -89.6428 95° East 558 642 41,000  Level Chicago Center
15:40 42.3269 -89.4342 95° East 556 640 41,000  Level Chicago Center
15:41 42.3133 -89.2261 95° East 559 643 41,000  Level Chicago Center
15:42 42.2989 -89.0214 95° East 552 635 41,000  Level Chicago Center
15:43 42.2842 -88.7897 95° East 554 638 41,000  Level Chicago Center
15:44 42.2692 -88.5836 96° East 553 636 41,000  Level Chicago Center
15:45 42.2533 -88.3758 96° East 557 641 41,000  Level Chicago Center
15:46 42.2375 -88.1711 96° East 551 634 41,000  Level Chicago Center
15:47 42.2222 -87.9672 96° East 547 629 41,000  Level Chicago Center
15:48 42.2111 -87.7614 94° East 549 632 41,000  Level Chicago Center
15:49 42.1975 -87.5153 94° East 547 629 41,000  Level Chicago Center
15:50 42.1861 -87.3103 94° East 548 631 41,000  Level Chicago Center
15:51 42.1739 -87.1056 95° East 549 632 41,000  Level Chicago Center
15:52 42.1608 -86.8997 95° East 553 636 41,000  Level Chicago Center
15:53 42.1478 -86.6767 94° East 542 624 41,000  Level Chicago Center
15:54 42.1367 -86.4736 94° East 544 626 41,000  Level Chicago Center
15:55 42.1228 -86.2733 95° East 538 619 41,000  Level Chicago Center
15:56 42.1086 -86.0725 95° East 539 620 41,000  Level Chicago Center
15:57 42.0961 -85.8903 95° East 534 615 41,000  Level Chicago Center
15:59 42.0792 -85.6503 95° East 540 621 41,000  Level Chicago Center
16:00 42.0647 -85.4511 96° East 538 619 41,000  Level Chicago Center
16:01 42.0497 -85.2492 96° East 544 626 41,000  Level Chicago Center
16:02 42.0378 -85.0442 94° East 550 633 41,000  Level Chicago Center
16:03 42.0386 -84.8419 90° East 545 627 41,000  Level Chicago Center
16:04 42.0431 -84.5967 89° East 547 629 41,000  Level Chicago Center
16:05 42.0458 -84.3917 89° East 549 632 41,000  Level Chicago Center
16:06 42.0472 -84.1881 89° East 548 631 41,000  Level Chicago Center
16:07 42.0497 -83.9850 89° East 546 628 41,000  Level Chicago Center
16:08 42.0486 -83.7850 90° East 541 623 41,000  Level Chicago Center
16:09 42.0439 -83.5750 92° East 541 623 41,000  Level Cleveland Center
16:10 42.0511 -83.3711 87° East 541 623 41,000  Level Cleveland Center
16:11 42.0581 -83.1672 87° East 541 623 41,000  Level Cleveland Center
16:12 42.0706 -82.9664 85° East 541 623 41,000  Level Cleveland Center
16:13 42.0789 -82.7569 87° East 546 628 41,000  Level Cleveland Center
16:14 42.0911 -82.5531 85° East 546 628 41,000  Level Cleveland Center
16:15 42.0858 -82.3542 92° East 546 628 41,000  Level Cleveland Center
16:16 42.1078 -82.1478 82° East 546 628 41,000  Level Cleveland Center
16:17 42.1144 -81.9436 87° East 545 627 41,000  Level Cleveland Center
16:18 42.1231 -81.7394 87° East 545 627 41,000  Level Cleveland Center
16:19 42.1292 -81.5322 88° East 545 627 41,000  Level Cleveland Center
16:20 42.1367 -81.3281 87° East 551 634 41,000  Level Cleveland Center
16:21 42.1442 -81.1208 87° East 551 634 41,000  Level Cleveland Center
16:22 42.1511 -80.9136 87° East 546 628 41,000  Level Cleveland Center
16:23 42.1536 -80.7289 89° East 552 635 41,000  Level Cleveland Center
16:24 42.1600 -80.5244 88° East 547 629 41,000  Level Cleveland Center
16:25 42.1661 -80.3169 88° East 552 635 41,000  Level Cleveland Center
16:26 42.1694 -80.1097 89° East 552 635 41,000  Level Cleveland Center
16:27 42.1747 -79.8828 88° East 552 635 41,000  Level Cleveland Center
16:28 42.1814 -79.6753 87° East 552 635 41,000  Level Cleveland Center
16:29 42.1817 -79.4681 90° East 552 635 41,000  Level Cleveland Center
16:30 42.1858 -79.2606 88° East 552 635 41,000  Level Cleveland Center
16:31 42.1958 -79.0531 86° East 552 635 41,000  Level Cleveland Center
16:32 42.2203 -78.8672 80° East 552 635 41,000  Level Cleveland Center
16:33 42.2483 -78.6589 80° East 557 641 41,000  Level Cleveland Center
16:34 42.2739 -78.4506 81° East 562 647 41,000  Level Cleveland Center
16:35 42.3025 -78.2192 80° East 562 647 41,000  Level Cleveland Center
16:36 42.3275 -78.0161 80° East 562 647 41,000  Level Cleveland Center
16:37 42.3500 -77.8156 81° East 546 628 41,000  Level Cleveland Center
16:38 42.3703 -77.6294 82° East 525 604 41,000  Level Cleveland Center
16:39 42.3925 -77.4456 81° East 511 588 41,000 -780 Level Cleveland Center
16:41 42.4306 -77.0822 82° East 484 557 38,800 -1,380 Descending Boston Center
16:42 42.4528 -76.8925 81° East 490 564 36,900 -1,920 Descending Boston Center
16:43 42.4728 -76.6967 82° East 510 587 35,000 -1,800 Descending Boston Center
16:44 42.4900 -76.5147 83° East 510 587 33,300 -1,020 Descending Boston Center
16:45 42.4689 -76.3361 99° East 482 555 33,000 -660 Descending Boston Center
16:46 42.4333 -76.1536 105° East 482 555 32,000 -1,440 Descending Boston Center
16:47 42.3972 -75.9828 106° East 487 560 30,200 -1,920 Descending Boston Center
16:48 42.3628 -75.8150 105° East 473 544 28,200 -1,980 Descending Boston Center
16:49 42.3297 -75.6558 106° East 452 520 26,300 -1,740 Descending Boston Center
16:50 42.2908 -75.4856 107° East 435 501 24,800 -1,800 Descending Boston Center
16:51 42.2650 -75.3550 105° East 422 486 22,700 -1,920 Descending Boston Center
16:52 42.2353 -75.2136 106° East 404 465 21,000 -1,740 Descending Boston Center
16:53 42.2050 -75.0803 107° East 385 443 19,300 -1,500 Descending Boston Center
16:54 42.1728 -74.9417 107° East 379 436 18,000 -660 Descending Boston Center
16:55 42.1211 -74.8250 121° Southeast 372 428 18,000 -360 Level Boston Center
16:56 42.0672 -74.6997 120° Southeast 372 428 17,300 -1,320 Descending Boston Center
16:57 42.0156 -74.5694 118° Southeast 372 428 15,400 -1,680 Descending Boston Center
16:58 41.9697 -74.4672 121° Southeast 365 420 14,000 -1,500 Descending Boston Center
16:59 41.9133 -74.3539 124° Southeast 344 396 12,400 -1,320 Descending Boston Center
17:00 41.8433 -74.3017 151° Southeast 330 380 11,400 -900 Descending Boston Center
17:01 41.7608 -74.2381 150° Southeast 321 369 10,700 -1,260 Descending Boston Center
17:02 41.7033 -74.1919 149° Southeast 287 330 8,900 -1,800 Descending Boston Center
17:03 41.6292 -74.1369 151° Southeast 276 318 7,200 -960 Descending Boston Center
17:04 41.5672 -74.0883 150° Southeast 266 306 7,000 -240 Descending Boston Center
17:05 41.5000 -74.0333 148° Southeast 257 296 6,800 -480 Descending New York TRACON
17:06 41.4333 -73.9833 151° Southeast 248 285 6,000 -540 Descending New York TRACON
17:07 41.3833 -73.9500 153° Southeast 194 223 5,700 -600 Descending New York TRACON
17:08 41.3333 -73.9167 153° Southeast 181 208 4,900 -900 Descending New York TRACON
17:09 41.3000 -73.8833 143° Southeast 159 183 4,000 -900 Descending New York TRACON
17:10 41.2667 -73.8500 143° Southeast 154 177 3,100 -480 Descending New York TRACON
17:11 41.2167 -73.8333 166° South 156 180 3,100 -60 Level New York TRACON
17:12 41.1833 -73.8000 143° Southeast 145 167 3,000 -420 Descending New York TRACON
17:13 41.1500 -73.7667 143° Southeast 151 174 2,300 -660 Descending New York TRACON
17:14 41.1167 -73.7500 159° South 123 142 1,700 -660 Descending New York TRACON
17:15 41.1000 -73.7333 143° Southeast 120 138 1,000 -720 Descending New York TRACON
17:17 41.0667 -73.7000 246° West  Level FlightAware Approximate